Time;durP1;ratioP1;P1;durP2;ratioP2;P2;SDS_P1;SDS_P2;PMS_P1;PMS_P2;Temp;Humidity;BMP_temperature;BMP_pressure;BME280_temperature;BME280_humidity;BME280_pressure;Samples;Min_cycle;Max_cycle;Signal;HPM_P1;HPM_P2
2023/02/22 00:00:51;;;;;;;6.88;3.70;;;7.30;99.90;;;;;;4980590;28;20046;-72
2023/02/22 00:03:31;;;;;;;7.18;3.63;;;7.30;99.90;;;;;;4973374;28;20042;-72
2023/02/22 00:06:04;;;;;;;6.57;3.47;;;7.30;99.90;;;;;;4978551;28;20419;-73
2023/02/22 00:08:34;;;;;;;5.80;3.40;;;7.30;99.90;;;;;;4982249;28;20419;-73
2023/02/22 00:11:02;;;;;;;4.43;3.33;;;7.30;99.90;;;;;;4983648;28;20030;-72
2023/02/22 00:13:28;;;;;;;6.60;3.45;;;7.30;99.90;;;;;;4989732;28;20027;-73
2023/02/22 00:15:55;;;;;;;5.88;3.60;;;7.40;99.90;;;;;;4979521;28;20460;-73
2023/02/22 00:18:20;;;;;;;6.82;3.45;;;7.40;99.90;;;;;;4985374;28;20050;-73
2023/02/22 00:20:46;;;;;;;8.57;3.35;;;7.30;99.90;;;;;;4972258;28;20035;-73
2023/02/22 00:23:17;;;;;;;8.15;3.80;;;7.30;99.90;;;;;;4973241;28;20039;-71
2023/02/22 00:25:44;;;;;;;7.23;3.73;;;7.20;99.90;;;;;;4988899;28;20181;-73
2023/02/22 00:28:10;;;;;;;9.13;3.78;;;7.20;99.90;;;;;;4980974;28;20069;-73
2023/02/22 00:30:35;;;;;;;6.85;3.60;;;7.20;99.90;;;;;;5000178;28;20035;-73
2023/02/22 00:33:01;;;;;;;9.32;3.88;;;7.10;99.90;;;;;;4980091;28;20507;-74
2023/02/22 00:35:29;;;;;;;6.60;3.72;;;7.10;99.90;;;;;;4988786;28;20029;-74
2023/02/22 00:37:58;;;;;;;7.70;3.60;;;7.10;99.90;;;;;;4992478;28;20077;-74
2023/02/22 00:40:30;;;;;;;6.67;3.57;;;7.00;99.90;;;;;;4983335;28;20078;-76
2023/02/22 00:43:01;;;;;;;8.15;3.80;;;7.00;99.90;;;;;;4986863;28;20052;-74
2023/02/22 00:45:29;;;;;;;7.63;3.50;;;6.90;99.90;;;;;;4982895;28;20100;-74
2023/02/22 00:47:55;;;;;;;7.77;3.83;;;7.00;99.90;;;;;;4977749;28;20054;-75
2023/02/22 00:50:23;;;;;;;7.40;3.85;;;6.90;99.90;;;;;;4984535;28;20031;-73
2023/02/22 00:52:49;;;;;;;7.93;3.90;;;6.90;99.90;;;;;;4984863;28;20026;-74
2023/02/22 00:55:21;;;;;;;7.70;3.93;;;6.80;99.90;;;;;;4976625;28;20507;-75
2023/02/22 00:57:47;;;;;;;6.65;3.08;;;6.70;99.90;;;;;;4976247;28;20037;-74
2023/02/22 01:00:19;;;;;;;4.30;2.90;;;6.60;99.90;;;;;;4985319;28;20031;-73
2023/02/22 01:02:44;;;;;;;;;;;6.60;99.90;;;;;;4972659;28;20031;-73
2023/02/22 01:05:12;;;;;;;5.77;3.27;;;6.60;99.90;;;;;;4989003;28;20299;-73
2023/02/22 01:07:39;;;;;;;5.53;3.57;;;6.60;99.90;;;;;;4974799;28;20027;-74
2023/02/22 01:10:07;;;;;;;5.07;3.53;;;6.60;99.90;;;;;;4984051;28;20023;-72
2023/02/22 01:12:33;;;;;;;7.77;3.50;;;6.60;99.90;;;;;;4973996;28;20464;-73
2023/02/22 01:14:59;;;;;;;7.83;3.50;;;6.70;99.90;;;;;;4983209;28;20037;-73
2023/02/22 01:17:25;;;;;;;8.90;4.00;;;6.70;99.90;;;;;;4991848;28;20030;-73
2023/02/22 01:19:52;;;;;;;7.90;3.70;;;6.60;99.90;;;;;;4993484;28;20030;-73
2023/02/22 01:22:20;;;;;;;6.33;3.37;;;6.60;99.90;;;;;;4992270;28;20088;-73
2023/02/22 01:24:46;;;;;;;5.23;3.23;;;6.50;99.90;;;;;;4991154;28;20034;-73
2023/02/22 01:27:13;;;;;;;7.72;3.92;;;6.50;99.90;;;;;;4992086;28;20034;-74
2023/02/22 01:29:39;;;;;;;7.67;3.50;;;6.40;99.90;;;;;;4992760;28;20035;-74
2023/02/22 01:32:05;;;;;;;6.67;3.67;;;6.40;99.90;;;;;;4991983;28;20113;-73
2023/02/22 01:34:31;;;;;;;6.57;3.77;;;6.40;99.90;;;;;;4988853;28;20121;-74
2023/02/22 01:36:58;;;;;;;8.93;3.77;;;6.30;99.90;;;;;;4972725;28;20031;-73
2023/02/22 01:39:24;;;;;;;7.53;4.00;;;6.20;99.90;;;;;;4974262;28;20023;-73
2023/02/22 01:41:52;;;;;;;7.50;4.10;;;6.30;99.90;;;;;;4972044;28;20034;-73
2023/02/22 01:44:34;;;;;;;7.70;3.40;;;6.30;99.90;;;;;;4972292;28;20125;-73
2023/02/22 01:47:01;;;;;;;9.70;3.80;;;6.20;99.90;;;;;;4973751;28;20468;-73
2023/02/22 01:49:39;;;;;;;11.70;3.80;;;6.20;99.90;;;;;;4972705;28;20035;-74
2023/02/22 01:52:08;;;;;;;7.07;3.27;;;6.20;99.90;;;;;;4972351;28;20023;-73
2023/02/22 01:54:38;;;;;;;7.03;3.57;;;6.20;99.90;;;;;;4971189;28;20082;-73
2023/02/22 01:57:09;;;;;;;5.87;3.47;;;6.10;99.90;;;;;;4973321;28;20086;-73
2023/02/22 01:59:39;;;;;;;10.70;3.30;;;6.10;99.90;;;;;;4971439;28;20054;-73
2023/02/22 02:02:05;;;;;;;7.83;4.23;;;6.20;99.90;;;;;;4972035;28;20389;-73
2023/02/22 02:04:32;;;;;;;6.90;3.40;;;6.10;99.90;;;;;;4972161;28;20034;-74
2023/02/22 02:07:01;;;;;;;6.83;3.60;;;6.10;99.90;;;;;;4972222;28;20035;-73
2023/02/22 02:09:39;;;;;;;8.40;4.47;;;6.00;99.90;;;;;;4971939;28;20050;-74
2023/02/22 02:12:08;;;;;;;6.07;3.27;;;6.00;99.90;;;;;;4972100;28;20117;-73
2023/02/22 02:14:39;;;;;;;6.10;3.60;;;6.00;99.90;;;;;;4972390;28;20031;-74
2023/02/22 02:17:14;;;;;;;6.57;3.80;;;5.90;99.90;;;;;;4973405;28;20022;-73
2023/02/22 02:19:48;;;;;;;10.27;4.10;;;5.90;99.90;;;;;;4972591;28;20074;-73
2023/02/22 02:22:30;;;;;;;5.70;3.37;;;5.80;99.90;;;;;;4971937;28;20026;-73
2023/02/22 02:25:16;;;;;;;8.68;4.18;;;5.80;99.90;;;;;;4988152;28;20117;-73
2023/02/22 02:28:00;;;;;;;7.60;3.70;;;5.90;99.90;;;;;;4990568;28;20073;-73
2023/02/22 02:30:44;;;;;;;6.07;3.30;;;5.90;99.90;;;;;;4992640;28;20023;-73
2023/02/22 02:33:15;;;;;;;7.57;3.37;;;5.90;99.90;;;;;;4991470;28;20037;-73
2023/02/22 02:35:48;;;;;;;6.13;3.42;;;5.90;99.90;;;;;;4990634;28;20490;-73
2023/02/22 02:38:37;;;;;;;6.57;3.43;;;5.90;99.90;;;;;;4991393;28;20023;-73
2023/02/22 02:41:37;;;;;;;5.70;3.50;;;5.70;99.90;;;;;;4992367;28;20026;-73
2023/02/22 02:44:15;;;;;;;9.00;3.77;;;5.70;99.90;;;;;;4990541;28;20369;-73
2023/02/22 02:46:55;;;;;;;7.63;3.63;;;5.60;99.90;;;;;;4990491;28;20030;-73
2023/02/22 02:49:40;;;;;;;6.83;3.40;;;5.60;99.90;;;;;;4991320;28;20026;-73
2023/02/22 02:52:08;;;;;;;6.77;3.80;;;5.60;99.90;;;;;;4961312;28;20093;-73
2023/02/22 02:54:37;;;;;;;5.77;3.17;;;5.60;99.90;;;;;;4990280;28;20057;-74
2023/02/22 02:57:03;;;;;;;5.77;3.50;;;5.50;99.90;;;;;;4992080;28;20213;-73
2023/02/22 02:59:32;;;;;;;6.67;3.50;;;5.50;99.90;;;;;;4992431;28;20026;-75
2023/02/22 03:02:15;;;;;;;7.43;3.30;;;5.60;99.90;;;;;;4994782;28;20031;-72
2023/02/22 03:05:07;;;;;;;8.30;4.10;;;5.60;99.90;;;;;;4994326;28;20129;-73
2023/02/22 03:08:00;;;;;;;6.45;3.80;;;5.50;99.90;;;;;;4994270;28;20093;-73
2023/02/22 03:11:05;;;;;;;6.72;3.97;;;5.40;99.90;;;;;;4994698;28;20475;-73
2023/02/22 03:13:55;;;;;;;6.80;3.33;;;5.40;99.90;;;;;;4994328;28;20165;-73
2023/02/22 03:16:31;;;;;;;6.37;3.53;;;5.40;99.90;;;;;;4994650;28;20026;-73
2023/02/22 03:19:21;;;;;;;7.87;3.73;;;5.40;99.90;;;;;;4994038;28;20026;-73
2023/02/22 03:21:47;;;;;;;7.23;3.70;;;5.30;99.90;;;;;;4993912;28;20022;-73
2023/02/22 03:24:21;;;;;;;6.60;3.70;;;5.30;99.90;;;;;;4994276;28;20367;-73
2023/02/22 03:27:02;;;;;;;8.13;3.47;;;5.30;99.90;;;;;;4993605;28;20399;-73
2023/02/22 03:29:35;;;;;;;6.72;3.67;;;5.30;99.90;;;;;;4995581;28;20065;-73
2023/02/22 03:32:03;;;;;;;8.00;3.43;;;5.20;99.90;;;;;;4995398;28;20375;-73
2023/02/22 03:34:40;;;;;;;7.03;3.70;;;5.30;99.90;;;;;;4995409;28;20030;-73
2023/02/22 03:37:29;;;;;;;7.27;3.77;;;5.20;99.90;;;;;;4994198;28;20026;-73
2023/02/22 03:39:56;;;;;;;8.87;3.50;;;5.20;99.90;;;;;;4994360;28;20022;-73
2023/02/22 03:42:29;;;;;;;9.87;3.73;;;5.20;99.90;;;;;;4994963;28;20486;-73
2023/02/22 03:44:57;;;;;;;6.27;3.50;;;5.10;99.90;;;;;;4993194;28;20037;-73
2023/02/22 03:47:38;;;;;;;5.63;3.57;;;5.10;99.90;;;;;;4993983;28;20026;-73
2023/02/22 03:50:08;;;;;;;4.85;3.10;;;5.10;99.90;;;;;;4994127;28;20073;-73
2023/02/22 03:52:34;;;;;;;8.37;3.40;;;5.10;99.90;;;;;;4993267;28;20089;-74
2023/02/22 03:55:03;;;;;;;7.17;3.83;;;5.10;99.90;;;;;;4994537;28;20093;-73
2023/02/22 03:57:34;;;;;;;7.17;3.30;;;5.10;99.90;;;;;;4994913;28;20037;-73
2023/02/22 03:59:59;;;;;;;8.43;3.53;;;5.10;99.90;;;;;;4977120;28;20030;-73
2023/02/22 04:02:25;;;;;;;8.70;3.53;;;5.10;99.90;;;;;;4994781;28;20380;-73
2023/02/22 04:04:51;;;;;;;8.80;4.00;;;5.10;99.90;;;;;;4994003;28;20034;-72
2023/02/22 04:07:17;;;;;;;9.33;3.67;;;5.00;99.90;;;;;;4977239;28;20033;-73
2023/02/22 04:09:42;;;;;;;6.70;3.63;;;5.00;99.90;;;;;;4993838;28;20105;-73
2023/02/22 04:12:08;;;;;;;9.23;3.90;;;5.00;99.90;;;;;;4992949;28;20022;-73
2023/02/22 04:14:33;;;;;;;8.40;4.07;;;4.90;99.90;;;;;;4993156;28;20037;-75
2023/02/22 04:16:59;;;;;;;6.63;3.60;;;4.90;99.90;;;;;;4993809;28;20030;-73
2023/02/22 04:19:25;;;;;;;6.67;3.97;;;4.90;99.90;;;;;;4994569;28;20113;-73
2023/02/22 04:21:50;;;;;;;8.33;4.57;;;5.00;99.90;;;;;;4976280;28;20030;-73
2023/02/22 04:24:16;;;;;;;6.73;4.27;;;5.00;99.90;;;;;;4993952;28;20073;-73
2023/02/22 04:26:41;;;;;;;8.23;4.33;;;5.00;99.90;;;;;;4992086;28;20069;-73
2023/02/22 04:29:07;;;;;;;7.10;4.40;;;5.00;99.90;;;;;;4994469;28;20034;-73
2023/02/22 04:31:33;;;;;;;9.20;4.83;;;5.00;99.90;;;;;;4992659;28;20390;-72
2023/02/22 04:33:59;;;;;;;10.50;5.30;;;5.00;99.90;;;;;;4993434;28;20062;-73
2023/02/22 04:36:26;;;;;;;7.50;4.00;;;5.00;99.90;;;;;;4994100;28;20027;-73
2023/02/22 04:38:52;;;;;;;10.20;4.17;;;5.00;99.90;;;;;;4975857;28;20547;-73
2023/02/22 04:41:18;;;;;;;11.40;4.50;;;5.00;99.90;;;;;;4993712;28;20036;-73
2023/02/22 04:43:44;;;;;;;10.87;4.53;;;5.00;99.90;;;;;;4975695;28;20030;-73
2023/02/22 04:46:10;;;;;;;8.60;5.30;;;5.00;99.90;;;;;;4993692;28;20049;-73
2023/02/22 04:48:36;;;;;;;12.07;5.70;;;5.00;99.90;;;;;;4976064;28;20529;-74
2023/02/22 04:51:02;;;;;;;10.17;6.13;;;5.00;99.90;;;;;;4975997;28;20022;-73
2023/02/22 04:53:28;;;;;;;11.10;6.53;;;5.10;99.90;;;;;;4992221;28;20042;-73
2023/02/22 04:55:53;;;;;;;12.50;6.90;;;5.20;99.90;;;;;;5006782;28;20145;-73
2023/02/22 04:58:19;;;;;;;14.47;7.40;;;5.30;99.90;;;;;;5008872;28;20030;-73
2023/02/22 05:00:44;;;;;;;12.53;6.80;;;5.30;99.90;;;;;;4992929;28;20109;-73
2023/02/22 05:03:10;;;;;;;12.60;6.77;;;5.30;99.90;;;;;;4992486;28;20034;-73
2023/02/22 05:05:36;;;;;;;16.17;7.63;;;5.30;99.90;;;;;;4992546;28;20429;-72
2023/02/22 05:08:01;;;;;;;14.07;6.70;;;5.30;99.90;;;;;;4991781;28;20026;-73
2023/02/22 05:10:27;;;;;;;14.30;7.30;;;5.40;99.90;;;;;;4992261;28;20431;-73
2023/02/22 05:12:53;;;;;;;15.40;7.20;;;5.50;99.90;;;;;;5007917;28;20117;-73
2023/02/22 05:15:21;;;;;;;13.57;7.20;;;5.40;99.90;;;;;;5008585;28;20121;-73
2023/02/22 05:17:47;;;;;;;13.67;7.83;;;5.30;99.90;;;;;;4991384;28;20034;-73
2023/02/22 05:20:27;;;;;;;15.53;7.83;;;5.30;99.90;;;;;;4993625;28;20121;-73
2023/02/22 05:22:58;;;;;;;15.83;8.17;;;5.30;99.90;;;;;;4991148;28;20030;-72
2023/02/22 05:25:25;;;;;;;15.57;7.57;;;5.40;99.90;;;;;;4993084;28;20061;-72
2023/02/22 05:27:57;;;;;;;14.40;7.97;;;5.30;99.90;;;;;;4991262;28;20030;-73
2023/02/22 05:30:26;;;;;;;18.55;8.23;;;5.30;99.90;;;;;;4992061;28;20030;-73
2023/02/22 05:32:52;;;;;;;13.47;7.87;;;5.30;99.90;;;;;;4992017;28;20121;-73
2023/02/22 05:35:19;;;;;;;16.73;8.40;;;5.30;99.90;;;;;;5008159;28;20137;-72
2023/02/22 05:37:45;;;;;;;19.83;8.00;;;5.30;99.90;;;;;;4992003;28;20427;-73
2023/02/22 05:40:13;;;;;;;15.83;8.73;;;5.20;99.90;;;;;;4992096;28;20026;-73
2023/02/22 05:42:41;;;;;;;19.07;8.53;;;5.20;99.90;;;;;;4991698;28;20026;-75
2023/02/22 05:45:08;;;;;;;20.00;8.53;;;5.20;99.90;;;;;;4991573;28;20030;-73
2023/02/22 05:47:33;;;;;;;14.70;7.50;;;5.20;99.90;;;;;;4991828;28;20034;-73
2023/02/22 05:50:00;;;;;;;14.13;7.73;;;5.20;99.90;;;;;;4990621;28;20256;-73
2023/02/22 05:52:26;;;;;;;17.33;7.90;;;5.20;99.90;;;;;;5008215;28;20037;-73
2023/02/22 05:54:52;;;;;;;15.43;8.07;;;5.20;99.90;;;;;;4991790;28;20046;-72
2023/02/22 05:57:17;;;;;;;15.80;7.57;;;5.20;99.90;;;;;;4993165;28;20463;-72
2023/02/22 05:59:43;;;;;;;17.07;8.47;;;5.20;99.90;;;;;;4992215;28;20026;-74
2023/02/22 06:02:08;;;;;;;14.53;8.27;;;5.20;99.90;;;;;;4975448;28;20031;-72
2023/02/22 06:04:35;;;;;;;14.20;8.13;;;5.20;99.90;;;;;;4975560;28;20034;-72
2023/02/22 06:07:01;;;;;;;15.07;7.40;;;5.20;99.90;;;;;;4953121;28;20077;-73
2023/02/22 06:09:26;;;;;;;15.03;8.43;;;5.20;99.90;;;;;;4989722;28;20022;-73
2023/02/22 06:11:52;;;;;;;14.87;7.67;;;5.20;99.90;;;;;;4967667;28;20035;-73
2023/02/22 06:14:17;;;;;;;15.97;8.10;;;5.20;99.90;;;;;;4990509;28;20086;-72
2023/02/22 06:16:43;;;;;;;15.27;7.33;;;5.20;99.90;;;;;;4961953;28;20038;-73
2023/02/22 06:19:09;;;;;;;18.10;8.10;;;5.20;99.90;;;;;;4991731;28;20026;-72
2023/02/22 06:21:34;;;;;;;12.97;6.90;;;5.20;99.90;;;;;;4989987;28;20030;-72
2023/02/22 06:24:03;;;;;;;16.13;7.90;;;5.20;99.90;;;;;;4973301;28;20030;-73
2023/02/22 06:26:29;;;;;;;15.17;7.33;;;5.10;99.90;;;;;;4962449;28;20049;-72
2023/02/22 06:28:54;;;;;;;14.70;7.07;;;5.10;99.90;;;;;;4967373;28;20114;-72
2023/02/22 06:31:20;;;;;;;18.73;7.13;;;5.10;99.90;;;;;;4984518;28;20034;-73
2023/02/22 06:33:46;;;;;;;14.93;7.33;;;5.10;99.90;;;;;;4991157;28;20461;-73
2023/02/22 06:36:11;;;;;;;13.57;7.73;;;5.20;99.90;;;;;;4977804;28;20449;-73
2023/02/22 06:38:37;;;;;;;11.17;6.90;;;5.20;99.90;;;;;;4978267;28;20026;-73
2023/02/22 06:41:03;;;;;;;13.53;7.57;;;5.20;99.90;;;;;;4970387;28;20132;-73
2023/02/22 06:43:28;;;;;;;12.93;7.27;;;5.20;99.90;;;;;;4973004;28;20030;-73
2023/02/22 06:45:54;;;;;;;14.47;7.17;;;5.10;99.90;;;;;;4977142;28;20126;-73
2023/02/22 06:48:19;;;;;;;14.57;7.40;;;5.10;99.90;;;;;;4973723;28;20018;-73
2023/02/22 06:50:45;;;;;;;15.67;6.77;;;5.20;99.90;;;;;;4983310;28;20030;-74
2023/02/22 06:53:10;;;;;;;12.63;6.80;;;5.20;99.90;;;;;;4969486;28;20030;-73
2023/02/22 06:55:36;;;;;;;11.90;6.57;;;5.30;99.90;;;;;;5001920;28;20556;-72
2023/02/22 06:58:03;;;;;;;13.37;6.20;;;5.30;99.90;;;;;;4994256;28;20493;-73
2023/02/22 07:00:31;;;;;;;10.70;6.00;;;5.30;99.90;;;;;;4991668;28;20056;-73
2023/02/22 07:02:57;;;;;;;12.13;6.20;;;5.30;99.90;;;;;;4982572;28;20383;-73
2023/02/22 07:05:24;;;;;;;14.90;6.10;;;5.30;99.90;;;;;;4989421;28;20545;-72
2023/02/22 07:07:52;;;;;;;10.27;6.23;;;5.30;99.90;;;;;;4989507;28;20031;-74
2023/02/22 07:10:24;;;;;;;13.17;7.40;;;5.30;99.90;;;;;;4992687;28;20026;-73
2023/02/22 07:12:53;;;;;;;11.77;6.57;;;5.40;99.90;;;;;;4975389;28;20117;-73
2023/02/22 07:15:23;;;;;;;12.13;6.60;;;5.30;99.90;;;;;;4986079;28;20034;-73
2023/02/22 07:17:50;;;;;;;12.93;6.57;;;5.40;99.90;;;;;;4993187;28;20031;-74
2023/02/22 07:20:19;;;;;;;13.17;5.90;;;5.40;99.90;;;;;;4992849;28;20031;-74
2023/02/22 07:22:45;;;;;;;13.90;6.30;;;5.40;99.90;;;;;;4998632;28;20062;-75
2023/02/22 07:25:10;;;;;;;11.77;6.20;;;5.50;99.90;;;;;;4992963;28;20486;-73
2023/02/22 07:27:40;;;;;;;11.10;5.77;;;5.60;99.90;;;;;;4994825;28;20384;-72
2023/02/22 07:30:14;;;;;;;10.97;5.47;;;5.70;99.90;;;;;;4993421;28;20530;-73
2023/02/22 07:32:41;;;;;;;12.10;5.73;;;5.70;99.90;;;;;;4979558;28;20467;-72
2023/02/22 07:35:17;;;;;;;10.63;5.57;;;5.70;99.90;;;;;;4992191;28;20042;-73
2023/02/22 07:37:43;;;;;;;10.17;6.30;;;5.70;99.90;;;;;;4993346;28;20038;-73
2023/02/22 07:40:09;;;;;;;12.00;6.37;;;5.80;99.90;;;;;;4993595;28;20027;-73
2023/02/22 07:42:53;;;;;;;12.70;6.77;;;5.80;99.90;;;;;;4979608;28;20050;-73
2023/02/22 07:45:20;;;;;;;11.50;6.23;;;5.80;99.90;;;;;;4986058;28;20045;-73
2023/02/22 07:47:47;;;;;;;13.47;6.77;;;5.80;99.90;;;;;;4993842;28;20045;-74
2023/02/22 07:50:14;;;;;;;18.77;7.50;;;5.80;99.90;;;;;;4993802;28;20029;-74
2023/02/22 07:52:43;;;;;;;12.47;6.83;;;5.90;99.90;;;;;;4983295;28;20029;-72
2023/02/22 07:55:09;;;;;;;14.47;7.47;;;5.90;99.90;;;;;;4990299;28;20050;-73
2023/02/22 07:57:34;;;;;;;13.27;6.70;;;6.00;99.90;;;;;;4971234;28;20037;-73
2023/02/22 08:00:00;;;;;;;15.37;7.60;;;6.00;99.90;;;;;;4975053;28;20034;-73
2023/02/22 08:02:26;;;;;;;13.50;7.53;;;6.10;99.90;;;;;;4964023;28;20026;-73
2023/02/22 08:04:51;;;;;;;14.43;7.10;;;6.20;99.90;;;;;;4991397;28;20030;-74
2023/02/22 08:07:17;;;;;;;14.83;7.40;;;6.20;99.90;;;;;;4974078;28;20069;-71
2023/02/22 08:09:42;;;;;;;15.83;8.07;;;6.20;99.90;;;;;;4991715;28;20456;-72
2023/02/22 08:12:08;;;;;;;15.87;7.70;;;6.30;99.90;;;;;;4979692;28;20035;-73
2023/02/22 08:14:34;;;;;;;12.43;6.83;;;6.30;99.90;;;;;;4974367;28;20460;-73
2023/02/22 08:16:59;;;;;;;17.17;7.80;;;6.30;99.90;;;;;;4972435;28;20031;-73
2023/02/22 08:19:25;;;;;;;18.10;8.00;;;6.40;99.90;;;;;;4973368;28;20034;-73
2023/02/22 08:21:50;;;;;;;14.07;7.90;;;6.40;99.90;;;;;;4988608;28;20118;-75
2023/02/22 08:24:16;;;;;;;14.43;7.30;;;6.40;99.90;;;;;;4989410;28;20506;-74
2023/02/22 08:26:45;;;;;;;16.37;7.40;;;6.50;99.90;;;;;;4963572;28;20422;-73
2023/02/22 08:29:13;;;;;;;14.17;7.40;;;6.50;99.90;;;;;;4982805;28;20029;-72
2023/02/22 08:31:39;;;;;;;15.33;7.17;;;6.50;99.90;;;;;;4965516;28;20030;-72
2023/02/22 08:34:05;;;;;;;15.10;7.23;;;6.60;99.90;;;;;;4978805;28;20336;-72
2023/02/22 08:36:31;;;;;;;15.87;7.77;;;6.60;99.90;;;;;;4967222;28;20515;-72
2023/02/22 08:38:58;;;;;;;13.93;6.70;;;6.60;99.90;;;;;;4967487;28;20065;-72
2023/02/22 08:41:23;;;;;;;16.90;7.33;;;6.60;99.90;;;;;;4966272;28;20019;-73
2023/02/22 08:43:49;;;;;;;19.07;8.13;;;6.70;99.90;;;;;;4973871;28;20465;-74
2023/02/22 08:46:17;;;;;;;15.33;7.43;;;6.70;99.90;;;;;;4977903;28;20053;-72
2023/02/22 08:48:50;;;;;;;17.40;8.17;;;6.80;99.90;;;;;;4987906;28;20027;-72
2023/02/22 08:51:16;;;;;;;14.67;7.90;;;6.80;99.90;;;;;;4961559;28;20041;-72
2023/02/22 08:53:42;;;;;;;15.27;7.60;;;6.90;99.90;;;;;;4992785;28;20038;-72
2023/02/22 08:56:07;;;;;;;13.47;7.23;;;6.90;99.90;;;;;;4970707;28;20050;-73
2023/02/22 08:58:33;;;;;;;15.87;7.87;;;7.00;99.90;;;;;;4964329;28;20090;-72
2023/02/22 09:00:59;;;;;;;12.37;7.33;;;7.00;99.90;;;;;;4965894;28;20649;-72
2023/02/22 09:03:24;;;;;;;13.77;7.27;;;7.10;99.90;;;;;;4979705;28;20032;-72
2023/02/22 09:05:50;;;;;;;13.57;6.77;;;7.20;99.90;;;;;;4979847;28;20460;-74
2023/02/22 09:08:16;;;;;;;10.43;6.67;;;7.20;99.90;;;;;;4965874;28;20065;-73
2023/02/22 09:10:44;;;;;;;13.57;7.63;;;7.30;99.90;;;;;;4965522;28;20031;-73
2023/02/22 09:13:10;;;;;;;14.33;7.47;;;7.30;99.90;;;;;;4988208;28;20030;-73
2023/02/22 09:15:38;;;;;;;12.60;7.15;;;7.40;99.90;;;;;;4975087;28;20018;-72
2023/02/22 09:18:07;;;;;;;11.77;6.50;;;7.50;99.90;;;;;;4968407;28;20034;-73
2023/02/22 09:20:34;;;;;;;14.87;7.33;;;7.60;99.90;;;;;;4984743;28;20038;-72
2023/02/22 09:23:01;;;;;;;13.52;7.55;;;7.70;99.90;;;;;;4965430;28;20035;-73
2023/02/22 09:25:28;;;;;;;12.90;7.05;;;7.70;99.90;;;;;;4988877;28;20482;-76
2023/02/22 09:27:55;;;;;;;11.88;6.72;;;7.80;99.90;;;;;;4971945;28;20409;-72
2023/02/22 09:30:31;;;;;;;18.27;6.93;;;7.80;99.90;;;;;;4972327;28;20030;-71
2023/02/22 09:33:03;;;;;;;13.37;6.93;;;7.90;99.90;;;;;;4978166;28;20063;-72
2023/02/22 09:35:29;;;;;;;12.82;6.57;;;8.00;99.90;;;;;;4975308;28;20038;-72
2023/02/22 09:37:56;;;;;;;13.32;6.40;;;8.10;99.90;;;;;;4991341;28;20031;-73
2023/02/22 09:40:24;;;;;;;11.45;6.53;;;8.10;99.90;;;;;;4992653;28;20015;-73
2023/02/22 09:43:06;;;;;;;11.13;6.40;;;8.20;99.90;;;;;;4966921;28;20027;-74
2023/02/22 09:45:58;;;;;;;12.90;6.80;;;8.30;99.90;;;;;;4961676;28;20038;-72
2023/02/22 09:48:24;;;;;;;13.65;6.90;;;8.40;99.90;;;;;;4984521;28;20033;-73
2023/02/22 09:50:57;;;;;;;12.82;6.57;;;8.50;99.90;;;;;;4958031;28;20023;-73
2023/02/22 09:53:35;;;;;;;13.30;7.22;;;8.50;99.90;;;;;;4960810;28;20057;-72
2023/02/22 09:56:09;;;;;;;13.50;6.70;;;8.70;99.90;;;;;;4990145;28;20066;-72
2023/02/22 09:58:55;;;;;;;13.07;6.72;;;8.80;99.90;;;;;;4985456;28;20037;-73
2023/02/22 10:01:28;;;;;;;11.60;6.38;;;8.80;99.90;;;;;;4990241;28;20506;-73
2023/02/22 10:04:29;;;;;;;15.00;7.03;;;9.00;99.90;;;;;;4984003;28;20030;-73
2023/02/22 10:06:54;;;;;;;14.30;7.05;;;9.00;99.90;;;;;;4972892;28;20066;-73
2023/02/22 10:09:24;;;;;;;14.70;6.93;;;9.20;99.90;;;;;;4989674;28;20430;-72
2023/02/22 10:12:19;;;;;;;12.50;6.93;;;9.20;99.90;;;;;;4988036;28;20022;-74
2023/02/22 10:14:52;;;;;;;15.50;6.93;;;9.20;99.90;;;;;;4985868;28;20034;-73
2023/02/22 10:17:47;;;;;;;11.38;6.65;;;9.20;99.90;;;;;;4991416;28;20030;-71
2023/02/22 10:20:40;;;;;;;12.00;6.53;;;9.30;99.90;;;;;;4990058;28;20229;-71
2023/02/22 10:23:25;;;;;;;10.20;6.40;;;9.40;99.90;;;;;;4980159;28;20094;-73
2023/02/22 10:26:03;;;;;;;12.57;6.82;;;9.50;99.90;;;;;;4977547;28;20053;-73
2023/02/22 10:28:37;;;;;;;14.18;6.72;;;9.60;99.90;;;;;;4981427;28;20077;-73
2023/02/22 10:31:07;;;;;;;15.20;6.53;;;9.70;99.90;;;;;;4990162;28;20076;-73
2023/02/22 10:33:40;;;;;;;13.18;7.15;;;9.70;99.90;;;;;;4986362;28;20038;-73
2023/02/22 10:36:15;;;;;;;14.57;6.35;;;9.70;99.90;;;;;;4991313;28;20037;-72
2023/02/22 10:38:47;;;;;;;11.43;6.32;;;9.80;99.90;;;;;;4986476;28;20030;-72
2023/02/22 10:41:25;;;;;;;12.90;7.05;;;9.80;99.90;;;;;;4980958;28;20031;-73
2023/02/22 10:43:50;;;;;;;17.45;8.55;;;9.90;99.90;;;;;;4989103;28;20037;-72
2023/02/22 10:46:19;;;;;;;11.15;6.00;;;9.90;99.90;;;;;;4991236;28;20089;-73
2023/02/22 10:48:49;;;;;;;12.52;6.72;;;10.00;99.90;;;;;;4986219;28;20386;-73
2023/02/22 10:51:14;;;;;;;13.15;6.70;;;10.10;99.90;;;;;;4987604;28;20642;-73
2023/02/22 10:53:40;;;;;;;12.45;6.20;;;10.20;99.90;;;;;;4977966;28;20130;-73
2023/02/22 10:56:21;;;;;;;13.88;6.68;;;10.20;99.90;;;;;;4973660;28;20057;-73
2023/02/22 10:58:58;;;;;;;19.23;6.90;;;10.30;99.90;;;;;;4974206;28;20423;-72
2023/02/22 11:01:41;;;;;;;13.38;6.72;;;10.30;99.90;;;;;;4991921;28;20105;-73
2023/02/22 11:04:20;;;;;;;13.77;6.57;;;10.30;99.90;;;;;;4959653;28;20391;-73
2023/02/22 11:07:04;;;;;;;16.85;6.80;;;10.40;99.90;;;;;;4987474;28;20054;-73
2023/02/22 11:09:29;;;;;;;14.05;6.80;;;10.50;99.90;;;;;;4971083;28;20434;-72
2023/02/22 11:12:10;;;;;;;11.93;6.10;;;10.50;99.90;;;;;;4986727;28;20030;-73
2023/02/22 11:14:36;;;;;;;12.75;5.32;;;10.50;99.90;;;;;;4963569;28;20030;-72
2023/02/22 11:17:06;;;;;;;15.48;5.97;;;10.60;99.90;;;;;;4971976;28;20029;-73
2023/02/22 11:19:33;;;;;;;12.00;6.13;;;10.70;99.90;;;;;;4970808;28;20117;-73
2023/02/22 11:22:13;;;;;;;14.05;5.85;;;10.80;99.90;;;;;;4975934;28;20033;-73
2023/02/22 11:25:06;;;;;;;12.30;5.90;;;10.80;99.90;;;;;;4995008;28;20391;-73
2023/02/22 11:27:40;;;;;;;12.02;5.88;;;10.90;99.90;;;;;;4974852;28;20043;-73
2023/02/22 11:30:20;;;;;;;17.55;6.15;;;11.00;99.90;;;;;;4992622;28;20030;-73
2023/02/22 11:32:57;;;;;;;12.45;6.28;;;11.00;99.90;;;;;;4977447;28;20031;-73
2023/02/22 11:35:28;;;;;;;12.57;6.80;;;11.10;99.90;;;;;;4994513;28;20547;-73
2023/02/22 11:38:14;;;;;;;15.90;6.45;;;11.20;99.90;;;;;;4976976;28;20062;-75
2023/02/22 11:40:41;;;;;;;12.43;6.80;;;11.30;99.90;;;;;;4977746;28;20033;-73
2023/02/22 11:43:15;;;;;;;14.57;7.32;;;11.40;99.90;;;;;;4993596;28;20065;-73
2023/02/22 11:46:25;;;;;;;13.43;6.60;;;11.50;99.90;;;;;;4980092;28;20468;-73
2023/02/22 11:49:04;;;;;;;13.60;6.65;;;11.60;99.90;;;;;;4959406;28;20038;-73
2023/02/22 11:51:51;;;;;;;13.35;5.90;;;11.70;99.90;;;;;;4971729;28;20479;-73
2023/02/22 11:54:35;;;;;;;12.70;5.88;;;11.80;99.90;;;;;;4961904;28;20595;-73
2023/02/22 11:57:00;;;;;;;12.90;6.15;;;11.80;99.90;;;;;;4976350;28;20085;-73
2023/02/22 11:59:35;;;;;;;15.23;6.40;;;11.90;99.90;;;;;;4977008;28;20480;-73
2023/02/22 12:02:34;;;;;;;12.30;6.53;;;12.00;99.90;;;;;;4975917;28;20038;-73
2023/02/22 12:05:28;;;;;;;12.90;6.75;;;12.10;99.90;;;;;;4975791;28;20475;-73
2023/02/22 12:08:10;;;;;;;12.88;6.53;;;12.20;99.90;;;;;;4971093;28;20038;-73
2023/02/22 12:11:11;;;;;;;15.13;6.40;;;12.30;99.90;;;;;;4976897;28;20471;-73
2023/02/22 12:14:08;;;;;;;15.05;6.50;;;12.50;99.90;;;;;;4965219;28;20062;-73
2023/02/22 12:17:08;;;;;;;14.27;6.80;;;12.60;99.90;;;;;;4980110;28;20475;-73
2023/02/22 12:19:43;;;;;;;15.20;6.22;;;12.70;99.90;;;;;;4976344;28;20034;-73
2023/02/22 12:22:12;;;;;;;17.10;7.10;;;12.80;99.90;;;;;;4990766;28;20149;-73
2023/02/22 12:24:44;;;;;;;13.52;6.75;;;12.90;99.90;;;;;;4963407;28;20027;-73
2023/02/22 12:27:26;;;;;;;;;;;13.10;99.90;;;;;;4993757;28;20475;-73
2023/02/22 12:30:00;;;;;;;11.82;6.43;;;13.20;99.90;;;;;;4969681;28;20008;-73
2023/02/22 12:32:59;;;;;;;15.00;6.80;;;13.40;99.90;;;;;;4974696;28;20113;-73
2023/02/22 12:35:34;;;;;;;15.15;6.65;;;13.70;98.50;;;;;;4951158;28;20117;-73
2023/02/22 12:38:11;;;;;;;14.05;6.78;;;13.90;98.90;;;;;;4989432;28;20027;-72
2023/02/22 12:40:55;;;;;;;17.77;7.00;;;14.20;97.90;;;;;;4980468;28;20463;-70
2023/02/22 12:43:43;;;;;;;14.95;6.70;;;14.20;96.50;;;;;;4965459;28;20035;-70
2023/02/22 12:46:49;;;;;;;15.18;6.35;;;14.30;96.20;;;;;;4972450;28;20133;-70
2023/02/22 12:49:30;;;;;;;15.02;6.90;;;14.30;95.90;;;;;;4987464;28;20407;-73
2023/02/22 12:52:20;;;;;;;19.42;7.43;;;14.40;95.30;;;;;;4976249;28;20022;-73
2023/02/22 12:55:22;;;;;;;20.92;7.63;;;14.60;94.90;;;;;;4980721;28;20049;-73
2023/02/22 12:58:07;;;;;;;16.63;6.75;;;14.90;94.20;;;;;;4991115;28;20373;-73
2023/02/22 13:00:42;;;;;;;15.43;7.13;;;15.20;93.90;;;;;;4992711;28;20456;-73
2023/02/22 13:03:41;;;;;;;16.98;7.72;;;15.50;93.10;;;;;;4987697;28;20476;-71
2023/02/22 13:06:25;;;;;;;13.43;6.97;;;15.70;91.40;;;;;;4989283;28;20480;-71
2023/02/22 13:08:54;;;;;;;14.82;7.13;;;15.80;90.30;;;;;;4964359;28;20039;-70
2023/02/22 13:11:35;;;;;;;17.25;7.35;;;16.00;91.40;;;;;;4975087;28;20034;-73